Lee's Summit, MO

7:34 AM CST on February 08, 2016 (GMT -0600)
Lee's Summit Municipal | | Change Station
CLOSE
Current Station
Airport
Location: Lee's Summit,
Elevation: 1004 ft
Nearby Weather Stations
Active Advisory: Wind Advisory

Elev 1004 ft 38.96 °N, 94.37 °W | Updated 41 minutes ago

Overcast
Overcast
33 °F
Feels Like 21 °F
N
21
Wind Variable Wind from NW
Gusts 39 mph

Today
High -- | Low -- °F
--% Chance of Precip.
Yesterday
High -- | Low -- °F
Precip. -- in
Pressure 30.01 in
Visibility 10.0 miles
Clouds Few 4700 ft
Overcast 6500 ft
Windchill 21 °F
Dew Point 16 °F
Humidity 50%
Rainfall 0.00 in
Snow Depth Not available.
7:17 AM 5:46 PM
Waning Crescent, 0% visible
METAR KLXT 081253Z AUTO 32018G34KT 10SM FEW047 OVC065 01/M09 A2999 RMK AO2 PK WND 32036/1213 SNE10 SLP161 P0000 T00061089
Pressure 30.01 in
Visibility 10.0 miles
Clouds Few 4700 ft
Overcast 6500 ft
Windchill 21 °F
Dew Point 16 °F
Humidity 50%
Rainfall 0.00 in
Snow Depth Not available.
7:17 AM 5:46 PM
Waning Crescent, 0% visible
METAR KLXT 081253Z AUTO 32018G34KT 10SM FEW047 OVC065 01/M09 A2999 RMK AO2 PK WND 32036/1213 SNE10 SLP161 P0000 T00061089

10-Day Weather Forecast

Almanac

Astronomy

Feb. 08, 2016 Rise Set
Actual Time
Civil Twilight
Nautical Twilight
Astronomical Twilight
Moon
Length of Visible Light
Length of Day
Tomorrow will be .
, % of the Moon is Illuminated

Today's Extremes

State Highs State Lows

Community

WunderPhotos

Upload Photos

1,891,434 photos uploaded!

WunderBlog® & News

Nearby

Air Quality

  Air Quality AQ Index Pollutant
Not available.

Snow Depth

Station Depth Elevation

Earthquake Activity

City Distance Mag. Time & Date
Minimum magnitude displayed is 2.5.

Coastal Water Temperatures

Place Temperature

Stations

Nearby Weather Stations

Station Location Temp. Windchill Dew Point Humidity Wind Precip. Elev Updated Type
                   

Watches & Warnings

Wind Advisory
Issued: 4:50 AM CST Feb. 8, 2016 – National Weather Service

... Wind Advisory remains in effect from 8 am this morning to 6 PM
CST this evening...

* timing... through this evening.

* Winds... sustained winds around 30 to 35 mph with gusts in excess
of 45 mph are expected.

* Impacts... strong Crosswinds on highways could make travel
difficult... particularly for high profile vehicles. In
addition... light snow this morning combined with strong winds may
periodically reduce visibilities.

Precautionary/preparedness actions...

A Wind Advisory means that winds of 35 mph are expected. Winds
this strong can make driving difficult... especially for high
profile vehicles. Use extra caution.